Time;durP1;ratioP1;P1;durP2;ratioP2;P2;SDS_P1;SDS_P2;PMS_P1;PMS_P2;Temp;Humidity;BMP_temperature;BMP_pressure;BME280_temperature;BME280_humidity;BME280_pressure;Samples;Min_cycle;Max_cycle;Signal;HPM_P1;HPM_P2
2022/02/02 00:04:22;;;;;;;;;;;;;;;2.55;100.00;96506.92;1726738;82;24586;-88
2022/02/02 00:07:02;;;;;;;;;;;;;;;2.58;100.00;96505.41;1735086;80;20279;-88
2022/02/02 00:09:17;;;;;;;;;;;;;;;2.60;100.00;96501.44;1739683;81;24865;-88
2022/02/02 00:12:12;;;;;;;;;;;;;;;2.61;100.00;96500.52;1735106;81;22008;-89
2022/02/02 00:14:50;;;;;;;;;;;;;;;2.62;100.00;96493.14;1742008;80;26864;-89
2022/02/02 00:17:15;;;;;;;;;;;;;;;2.65;100.00;96498.08;1737952;82;25201;-89
2022/02/02 00:22:20;;;;;;;;;;;;;;;2.68;100.00;96490.10;1739144;80;24776;-90
2022/02/02 00:25:02;;;;;;;;;;;;;;;2.67;100.00;96493.17;1733296;82;22015;-90
2022/02/02 00:27:22;;;;;;;;;;;;;;;2.66;100.00;96492.81;1732630;82;25944;-89
2022/02/02 00:29:59;;;;;;;;;;;;;;;2.65;100.00;96482.58;1737290;80;24632;-89
2022/02/02 00:35:18;;;;;;;;;;;;;;;2.63;100.00;96485.26;1743163;80;25444;-89
2022/02/02 00:37:42;;;;;;;;;;;;;;;2.63;100.00;96494.77;1739727;81;21986;-90
2022/02/02 00:40:15;;;;;;;;;;;;;;;2.63;100.00;96491.72;1746930;81;21927;-89
2022/02/02 00:43:01;;;;;;;;;;;;;;;2.63;100.00;96489.59;1613035;88;20758;-86
2022/02/02 00:45:39;;;;;;;;;;;;;;;2.64;100.00;96482.22;1599265;87;20260;-86
2022/02/02 00:48:01;;;;;;;;;;;;;;;2.65;100.00;96476.95;1627269;87;24870;-86
2022/02/02 00:50:27;;;;;;;;;;;;;;;2.69;100.00;96475.80;1615136;87;22092;-86
2022/02/02 00:52:59;;;;;;;;;;;;;;;2.73;100.00;96482.86;1612054;88;26022;-90
2022/02/02 00:55:26;;;;;;;;;;;;;;;2.76;100.00;96478.78;1608058;86;25110;-89
2022/02/02 00:57:52;;;;;;;;;;;;;;;2.80;100.00;96482.33;1609891;89;20227;-89
2022/02/02 01:00:18;;;;;;;;;;;;;;;2.83;100.00;96481.31;1607947;88;24890;-91
2022/02/02 01:02:46;;;;;;;;;;;;;;;2.86;100.00;96480.61;1608799;88;21989;-89
2022/02/02 01:05:12;;;;;;;;;;;;;;;2.89;100.00;96480.38;1605171;88;26030;-89
2022/02/02 01:08:10;;;;;;;;;;;;;;;2.90;100.00;96478.63;1610342;88;24641;-89
2022/02/02 01:10:20;;;;;;;;;;;;;;;2.89;100.00;96482.17;1606186;88;20509;-89
2022/02/02 01:16:11;;;;;;;;;;;;;;;2.89;100.00;96480.88;1557503;91;22113;-90
2022/02/02 01:20:34;;;;;;;;;;;;;;;2.90;100.00;96492.84;1556642;91;24473;-89
2022/02/02 01:28:26;;;;;;;;;;;;;;;2.87;100.00;96497.77;1555756;89;21960;-89
2022/02/02 01:30:52;;;;;;;;;;;;;;;2.88;100.00;96503.30;1548707;91;25976;-89
2022/02/02 01:33:19;;;;;;;;;;;;;;;2.88;100.00;96493.43;1566880;91;24516;-86
2022/02/02 01:35:45;;;;;;;;;;;;;;;2.86;100.00;96476.73;1558182;90;20222;-86
2022/02/02 01:38:18;;;;;;;;;;;;;;;2.85;100.00;96493.16;1607916;87;24821;-89
2022/02/02 01:40:55;;;;;;;;;;;;;;;2.84;100.00;96490.22;1610259;88;22208;-89
2022/02/02 01:43:20;;;;;;;;;;;;;;;2.83;100.00;96491.64;1638901;86;26047;-87
2022/02/02 01:45:57;;;;;;;;;;;;;;;2.84;100.00;96503.59;1640326;86;25400;-86
2022/02/02 01:48:33;;;;;;;;;;;;;;;2.83;100.00;96507.97;1608126;88;20335;-86
2022/02/02 01:51:15;;;;;;;;;;;;;;;2.85;100.00;96510.42;1639697;86;24769;-87
2022/02/02 01:56:00;;;;;;;;;;;;;;;2.88;100.00;96492.97;1637851;86;26006;-89
2022/02/02 02:01:10;;;;;;;;;;;;;;;2.85;100.00;96509.13;1617798;88;20205;-89
2022/02/02 02:03:36;;;;;;;;;;;;;;;2.81;100.00;96516.73;1642437;86;24820;-89
2022/02/02 02:06:02;;;;;;;;;;;;;;;2.77;100.00;96515.30;1639078;87;22074;-90
2022/02/02 02:08:29;;;;;;;;;;;;;;;2.73;100.00;96518.55;1636613;86;25981;-90
2022/02/02 02:10:58;;;;;;;;;;;;;;;2.70;100.00;96508.45;1644196;86;24645;-90
2022/02/02 02:16:04;;;;;;;;;;;;;;;2.64;100.00;96516.61;1639786;87;24759;-86
2022/02/02 02:18:30;;;;;;;;;;;;;;;2.63;100.00;96520.12;1641955;86;21964;-89
2022/02/02 02:20:57;;;;;;;;;;;;;;;2.63;100.00;96517.53;1652139;87;26695;-88
2022/02/02 02:23:25;;;;;;;;;;;;;;;2.63;100.00;96521.41;1652045;87;24425;-89
2022/02/02 02:25:51;;;;;;;;;;;;;;;2.64;100.00;96508.04;1643233;86;20873;-89
2022/02/02 02:28:50;;;;;;;;;;;;;;;2.66;100.00;96506.19;1641518;86;24775;-89
2022/02/02 02:31:15;;;;;;;;;;;;;;;2.68;100.00;96506.88;1637718;86;22008;-89
2022/02/02 02:33:54;;;;;;;;;;;;;;;2.69;100.00;96505.96;1649008;87;26214;-90
2022/02/02 02:58:17;;;;;;;;;;;;;;;2.80;100.00;96518.49;1648460;87;21949;-88
2022/02/02 03:00:56;;;;;;;;;;;;;;;2.81;100.00;96525.31;1598266;87;26008;-84
2022/02/02 03:13:48;;;;;;;;;;;;;;;2.84;100.00;96514.75;1637167;86;24547;-85
2022/02/02 03:29:42;;;;;;;;;;;;;;;2.87;100.00;96511.98;1606816;88;26082;-89
2022/02/02 03:55:37;;;;;;;;;;;;;;;3.07;100.00;96538.16;1649429;86;26031;-87
2022/02/02 04:00:32;;;;;;;;;;;;;;;3.07;100.00;96549.79;1644213;86;20632;-88
2022/02/02 04:03:30;;;;;;;;;;;;;;;3.05;100.00;96551.21;1633228;86;25405;-88
2022/02/02 04:08:17;;;;;;;;;;;;;;;2.92;100.00;96544.77;1648374;86;26568;-89
2022/02/02 04:10:32;;;;;;;;;;;;;;;2.86;100.00;96566.32;1633141;85;24442;-89
2022/02/02 04:37:29;;;;;;;;;;;;;;;2.51;100.00;96563.09;1650696;85;26736;-85
2022/02/02 04:37:33;;;;;;;;;;;;;;;2.43;100.00;96566.66;1625053;85;25403;-86
2022/02/02 04:56:26;;;;;;;;;;;;;;;2.39;100.00;96568.27;1574754;89;24936;-88
2022/02/02 05:09:35;;;;;;;;;;;;;;;2.47;100.00;96580.19;1612671;86;24860;-89
2022/02/02 05:12:16;;;;;;;;;;;;;;;2.42;100.00;96561.14;1613997;86;22039;-89
2022/02/02 05:45:22;;;;;;;;;;;;;;;;;;;;;
2022/02/02 05:52:02;;;;;;;;;;;;;;;2.55;100.00;96620.53;1621788;88;22653;-90
2022/02/02 05:54:34;;;;;;;;;;;;;;;2.56;100.00;96620.06;1614364;87;26633;-90
2022/02/02 05:57:01;;;;;;;;;;;;;;;2.55;100.00;96621.82;1618760;87;24469;-89
2022/02/02 05:59:29;;;;;;;;;;;;;;;2.57;100.00;96626.39;1619098;88;20256;-89
2022/02/02 06:01:57;;;;;;;;;;;;;;;2.56;100.00;96632.52;1627005;87;26381;-86
2022/02/02 06:04:25;;;;;;;;;;;;;;;2.55;100.00;96628.27;1621240;88;21527;-86
2022/02/02 06:06:53;;;;;;;;;;;;;;;2.56;100.00;96640.26;1624663;88;26070;-89
2022/02/02 06:09:22;;;;;;;;;;;;;;;2.56;100.00;96628.64;1616740;87;24426;-88
2022/02/02 06:11:52;;;;;;;;;;;;;;;2.57;100.00;96634.60;1617413;87;20328;-88
2022/02/02 06:14:20;;;;;;;;;;;;;;;2.58;100.00;96644.84;1617917;87;24753;-89
2022/02/02 06:16:47;;;;;;;;;;;;;;;2.58;100.00;96643.55;1620242;87;22094;-88
2022/02/02 06:19:14;;;;;;;;;;;;;;;2.59;100.00;96636.17;1619751;87;26178;-89
2022/02/02 06:21:40;;;;;;;;;;;;;;;2.60;100.00;96641.70;1620308;87;24505;-86
2022/02/02 06:24:21;;;;;;;;;;;;;;;2.60;100.00;96630.08;1627698;88;20453;-89
2022/02/02 06:26:48;;;;;;;;;;;;;;;2.61;100.00;96643.36;1626575;87;24863;-85
2022/02/02 06:29:15;;;;;;;;;;;;;;;2.63;100.00;96637.61;1624032;87;22103;-85
2022/02/02 06:31:43;;;;;;;;;;;;;;;2.63;100.00;96643.23;1624938;87;25596;-85
2022/02/02 06:34:11;;;;;;;;;;;;;;;2.64;100.00;96651.35;1618331;88;24617;-88
2022/02/02 06:36:38;;;;;;;;;;;;;;;2.67;100.00;96649.88;1621499;87;20165;-89
2022/02/02 06:39:05;;;;;;;;;;;;;;;2.69;100.00;96650.58;1626909;86;24774;-89
2022/02/02 06:41:32;;;;;;;;;;;;;;;2.71;100.00;96659.89;1617690;87;22053;-85
2022/02/02 06:44:07;;;;;;;;;;;;;;;2.73;100.00;96663.64;1629603;86;26170;-88
2022/02/02 06:46:39;;;;;;;;;;;;;;;2.75;100.00;96667.78;1630601;86;24574;-88
2022/02/02 06:49:09;;;;;;;;;;;;;;;2.79;100.00;96670.98;1641270;87;20220;-89
2022/02/02 06:51:54;;;;;;;;;;;;;;;2.80;100.00;96670.88;1635047;86;24861;-89
2022/02/02 06:54:13;;;;;;;;;;;;;;;2.80;100.00;96668.30;1637932;87;22089;-89
2022/02/02 06:56:50;;;;;;;;;;;;;;;2.80;100.00;96663.14;1640154;86;25995;-89
2022/02/02 07:18:30;;;;;;;;;;;;;;;2.91;100.00;96700.70;1619083;86;24863;-88
2022/02/02 07:20:58;;;;;;;;;;;;;;;2.91;100.00;96707.16;1642155;86;22000;-88
2022/02/02 07:28:40;;;;;;;;;;;;;;;2.82;100.00;96723.74;1578348;89;20242;-89
2022/02/02 07:33:44;;;;;;;;;;;;;;;2.79;100.00;96726.05;1564096;90;22073;-90
2022/02/02 07:36:15;;;;;;;;;;;;;;;2.80;100.00;96736.75;1640906;86;26038;-88
2022/02/02 07:38:57;;;;;;;;;;;;;;;2.79;100.00;96731.67;1625807;86;24482;-85
2022/02/02 07:41:30;;;;;;;;;;;;;;;2.79;100.00;96732.51;1649229;86;20214;-89
2022/02/02 07:43:59;;;;;;;;;;;;;;;2.77;100.00;96738.72;1639967;86;24783;-88
2022/02/02 07:46:27;;;;;;;;;;;;;;;2.73;100.00;96738.08;1639571;86;22007;-88
2022/02/02 07:48:53;;;;;;;;;;;;;;;2.69;100.00;96727.59;1640768;86;25989;-88
2022/02/02 07:51:19;;;;;;;;;;;;;;;2.71;100.00;96740.41;1645386;86;24432;-88
2022/02/02 07:53:50;;;;;;;;;;;;;;;2.70;100.00;96740.88;1646873;86;20223;-88
2022/02/02 07:56:16;;;;;;;;;;;;;;;2.72;100.00;96738.20;1649360;85;25549;-88
2022/02/02 07:58:57;;;;;;;;;;;;;;;2.75;100.00;96743.15;1640993;85;22119;-89
2022/02/02 08:01:13;;;;;;;;;;;;;;;2.78;100.00;96748.13;1636142;86;26903;-88
2022/02/02 08:03:42;;;;;;;;;;;;;;;2.81;100.00;96744.88;1636162;87;24511;-88
2022/02/02 08:06:07;;;;;;;;;;;;;;;2.85;100.00;96750.19;1637132;85;20229;-89
2022/02/02 08:08:36;;;;;;;;;;;;;;;2.86;100.00;96744.09;1644010;86;24801;-88
2022/02/02 08:11:09;;;;;;;;;;;;;;;2.90;100.00;96740.38;1645002;86;22588;-88
2022/02/02 08:13:42;;;;;;;;;;;;;;;2.93;100.00;96741.48;1640689;84;26073;-89
2022/02/02 08:16:12;;;;;;;;;;;;;;;2.95;100.00;96737.02;1647111;86;24604;-89
2022/02/02 08:18:40;;;;;;;;;;;;;;;2.99;100.00;96742.00;1641643;86;20264;-88
2022/02/02 08:21:05;;;;;;;;;;;;;;;3.00;100.00;96739.79;1628335;86;24757;-88
2022/02/02 08:23:32;;;;;;;;;;;;;;;3.04;100.00;96743.81;1636273;86;20812;-88
2022/02/02 08:25:59;;;;;;;;;;;;;;;3.07;100.00;96741.02;1644348;86;26242;-88
2022/02/02 08:28:26;;;;;;;;;;;;;;;3.11;100.00;96747.66;1647234;86;24449;-89
2022/02/02 08:30:52;;;;;;;;;;;;;;;3.15;100.00;96742.63;1648480;86;20195;-90
2022/02/02 08:33:24;;;;;;;;;;;;;;;3.17;100.00;96751.09;1646734;86;24733;-89
2022/02/02 08:35:51;;;;;;;;;;;;;;;3.22;100.00;96750.31;1625901;85;22090;-89
2022/02/02 08:38:30;;;;;;;;;;;;;;;3.26;100.00;96751.78;1641158;86;26177;-86
2022/02/02 08:40:52;;;;;;;;;;;;;;;3.29;100.00;96767.91;1611463;86;24315;-86
2022/02/02 08:43:36;;;;;;;;;;;;;;;3.33;100.00;96778.85;1653822;86;20473;-90
2022/02/02 08:46:08;;;;;;;;;;;;;;;3.34;100.00;96783.93;1645624;86;24825;-91
2022/02/02 08:48:36;;;;;;;;;;;;;;;3.29;100.00;96796.34;1639847;86;21963;-91
2022/02/02 08:51:06;;;;;;;;;;;;;;;3.28;100.00;96793.39;1632355;86;26689;-91
2022/02/02 08:53:37;;;;;;;;;;;;;;;3.23;100.00;96798.04;1622695;86;24528;-89
2022/02/02 08:59:00;;;;;;;;;;;;;;;3.13;100.00;96817.67;1641433;86;24780;-90
2022/02/02 09:01:25;;;;;;;;;;;;;;;3.09;100.00;96814.11;1618381;85;22106;-90
2022/02/02 09:06:34;;;;;;;;;;;;;;;3.03;100.00;96814.50;1630295;86;24451;-90
2022/02/02 09:09:20;;;;;;;;;;;;;;;2.99;100.00;96823.39;1629459;86;20255;-91
2022/02/02 09:25:35;;;;;;;;;;;;;;;3.13;100.00;96850.44;1595832;88;24814;-85
2022/02/02 09:36:13;;;;;;;;;;;;;;;3.34;100.00;96846.44;1628679;86;20293;-85
2022/02/02 09:38:37;;;;;;;;;;;;;;;3.35;100.00;96838.59;1594861;88;25482;-86
2022/02/02 09:41:25;;;;;;;;;;;;;;;3.38;100.00;96848.38;1571487;89;22063;-86
2022/02/02 09:43:36;;;;;;;;;;;;;;;3.36;100.00;96840.72;1624786;86;26690;-86
2022/02/02 09:46:08;;;;;;;;;;;;;;;3.36;100.00;96834.25;1596955;87;24558;-89
2022/02/02 09:48:39;;;;;;;;;;;;;;;3.34;100.00;96842.56;1582561;89;20219;-91
2022/02/02 09:51:11;;;;;;;;;;;;;;;3.31;100.00;96845.36;1562735;89;25501;-90
2022/02/02 09:53:50;;;;;;;;;;;;;;;3.28;100.00;96848.97;1573129;89;22667;-89
2022/02/02 09:59:03;;;;;;;;;;;;;;;3.27;100.00;96832.29;1612530;86;24495;-88
2022/02/02 10:01:42;;;;;;;;;;;;;;;3.28;100.00;96828.75;1605782;87;20541;-89
2022/02/02 10:04:15;;;;;;;;;;;;;;;3.28;100.00;96814.53;1586613;89;24949;-89
2022/02/02 10:14:15;;;;;;;;;;;;;;;3.13;100.00;96842.23;1629662;86;20428;-90
2022/02/02 10:16:43;;;;;;;;;;;;;;;3.08;100.00;96864.12;1630238;87;24833;-86
2022/02/02 10:19:14;;;;;;;;;;;;;;;3.00;100.00;96862.03;1632968;86;22202;-86
2022/02/02 10:21:40;;;;;;;;;;;;;;;2.86;100.00;96864.69;1620033;86;26206;-86
2022/02/02 10:24:06;;;;;;;;;;;;;;;2.79;100.00;96863.41;1616564;87;24324;-86
2022/02/02 10:26:32;;;;;;;;;;;;;;;2.71;100.00;96863.92;1611313;87;20217;-86
2022/02/02 10:29:00;;;;;;;;;;;;;;;2.69;100.00;96855.43;1626404;87;24910;-88
2022/02/02 10:31:28;;;;;;;;;;;;;;;2.70;100.00;96855.80;1628902;86;21968;-88
2022/02/02 10:33:56;;;;;;;;;;;;;;;2.78;100.00;96856.61;1625316;85;26007;-88
2022/02/02 10:36:27;;;;;;;;;;;;;;;2.78;100.00;96856.61;1598631;87;24541;-92
2022/02/02 10:39:06;;;;;;;;;;;;;;;2.80;100.00;96867.20;1576802;90;20177;-91
2022/02/02 10:41:33;;;;;;;;;;;;;;;2.82;100.00;96864.52;1573137;90;24779;-92
2022/02/02 10:44:03;;;;;;;;;;;;;;;2.80;100.00;96855.58;1575297;90;22038;-92
2022/02/02 10:46:37;;;;;;;;;;;;;;;2.80;100.00;96874.95;1595335;89;26122;-91
2022/02/02 10:49:12;;;;;;;;;;;;;;;2.86;100.00;96873.73;1579629;89;38206;-86
2022/02/02 10:51:44;;;;;;;;;;;;;;;2.95;100.00;96872.66;1593603;87;20227;-85
2022/02/02 10:54:22;;;;;;;;;;;;;;;3.09;100.00;96878.71;1591687;89;24861;-86
2022/02/02 10:56:48;;;;;;;;;;;;;;;3.21;100.00;96879.22;1596259;89;22064;-86
2022/02/02 10:59:22;;;;;;;;;;;;;;;3.29;100.00;96876.48;1589543;89;26023;-86
2022/02/02 11:01:47;;;;;;;;;;;;;;;3.39;100.00;96881.86;1595371;87;24790;-86
2022/02/02 11:07:00;;;;;;;;;;;;;;;3.49;100.00;96884.20;1596052;87;25461;-89
2022/02/02 11:09:28;;;;;;;;;;;;;;;3.53;100.00;96884.84;1609189;87;22072;-89
2022/02/02 11:11:55;;;;;;;;;;;;;;;3.58;100.00;96886.66;1610419;87;26190;-89
2022/02/02 11:14:36;;;;;;;;;;;;;;;3.64;100.00;96881.91;1599001;87;24676;-89
2022/02/02 11:17:06;;;;;;;;;;;;;;;3.74;100.00;96889.41;1503987;92;20345;-89
2022/02/02 11:19:34;;;;;;;;;;;;;;;3.82;100.00;96878.53;1514292;89;24622;-88
2022/02/02 11:22:20;;;;;;;;;;;;;;;3.83;100.00;96876.31;1604993;87;21970;-88
2022/02/02 11:24:46;;;;;;;;;;;;;;;3.83;100.00;96878.90;1595048;87;26049;-88
2022/02/02 11:27:32;;;;;;;;;;;;;;;3.82;100.00;96880.31;1586037;87;24351;-88
2022/02/02 11:29:58;;;;;;;;;;;;;;;3.81;100.00;96881.24;1581192;87;20320;-88
2022/02/02 11:32:26;;;;;;;;;;;;;;;3.84;100.00;96871.50;1598158;87;20297;-88
2022/02/02 11:35:10;;;;;;;;;;;;;;;3.91;100.00;96880.52;1601245;87;22010;-88
2022/02/02 11:37:56;;;;;;;;;;;;;;;3.99;100.00;96877.39;1601907;87;26032;-87
2022/02/02 11:40:23;;;;;;;;;;;;;;;4.06;100.00;96874.75;1598567;87;24534;-88
2022/02/02 11:42:57;;;;;;;;;;;;;;;4.11;100.00;96885.61;1605013;87;20484;-87
2022/02/02 11:45:40;;;;;;;;;;;;;;;4.05;100.00;96895.92;1609758;85;24962;-86
2022/02/02 11:48:14;;;;;;;;;;;;;;;3.82;100.00;96915.25;1619808;87;22716;-86
2022/02/02 11:50:48;;;;;;;;;;;;;;;3.51;100.00;96916.44;1624286;87;26029;-86
2022/02/02 11:53:37;;;;;;;;;;;;;;;3.33;100.00;96912.00;1618392;88;25230;-89
2022/02/02 11:56:04;;;;;;;;;;;;;;;3.28;100.00;96916.18;1622108;87;20169;-89
2022/02/02 11:58:32;;;;;;;;;;;;;;;3.28;100.00;96914.05;1626326;87;24740;-90
2022/02/02 12:01:10;;;;;;;;;;;;;;;3.36;100.00;96910.06;1624689;86;21951;-86
2022/02/02 12:03:59;;;;;;;;;;;;;;;3.45;100.00;96907.32;1626523;87;26302;-89
2022/02/02 12:09:26;;;;;;;;;;;;;;;3.70;100.00;96906.55;1625747;87;20307;-91
2022/02/02 12:50:30;;;;;;;;;;;;;;;4.53;100.00;96949.14;1634241;87;20360;-89
2022/02/02 12:56:16;;;;;;;;;;;;;;;4.47;100.00;96958.16;1650391;87;22056;-91
2022/02/02 12:58:35;;;;;;;;;;;;;;;4.45;100.00;96944.51;1641872;86;25724;-91
2022/02/02 13:01:11;;;;;;;;;;;;;;;4.46;100.00;96959.13;1642588;86;25127;-91
2022/02/02 13:03:40;;;;;;;;;;;;;;;4.46;100.00;96955.23;1651655;85;20289;-91
2022/02/02 13:06:16;;;;;;;;;;;;;;;4.46;100.00;96964.30;1654013;85;24266;-90
2022/02/02 13:08:43;;;;;;;;;;;;;;;4.47;100.00;96959.45;1658471;86;22824;-91
2022/02/02 13:11:16;;;;;;;;;;;;;;;4.50;100.00;96965.73;1657106;86;26214;-90
2022/02/02 13:13:47;;;;;;;;;;;;;;;4.50;100.00;96963.15;1646529;86;24485;-88
2022/02/02 13:16:19;;;;;;;;;;;;;;;4.49;100.00;96960.66;1656917;86;20477;-88
2022/02/02 13:18:48;;;;;;;;;;;;;;;4.47;100.00;96970.31;1656386;85;24792;-89
2022/02/02 13:24:02;;;;;;;;;;;;;;;4.51;100.00;96963.52;1659288;86;26014;-90
2022/02/02 13:26:42;;;;;;;;;;;;;;;4.53;100.00;96961.63;1656621;86;24516;-90
2022/02/02 13:29:02;;;;;;;;;;;;;;;4.58;100.00;96963.92;1654289;85;20266;-88
2022/02/02 13:31:32;;;;;;;;;;;;;;;4.62;100.00;96957.59;1633088;86;24871;-89
2022/02/02 13:34:11;;;;;;;;;;;;;;;4.68;100.00;96958.92;1591396;89;22091;-88
2022/02/02 13:37:28;;;;;;;;;;;;;;;4.71;100.00;96969.06;1604962;88;26035;-89
2022/02/02 13:42:18;;;;;;;;;;;;;;;4.76;100.00;96975.58;1590821;88;24527;-90
2022/02/02 13:53:07;;;;;;;;;;;;;;;4.87;100.00;96994.27;1597066;88;25183;-88
2022/02/02 13:55:52;;;;;;;;;;;;;;;4.88;100.00;96991.58;1592664;89;20231;-89
2022/02/02 13:58:33;;;;;;;;;;;;;;;4.89;100.00;96991.11;1583077;89;23793;-89
2022/02/02 14:00:53;;;;;;;;;;;;;;;4.88;100.00;96988.16;1611985;87;21951;-88
2022/02/02 14:06:04;;;;;;;;;;;;;;;4.86;100.00;97002.50;1588507;89;24190;-87
2022/02/02 14:32:53;;;;;;;;;;;;;;;2.69;100.00;97139.53;1647481;85;24615;-89
2022/02/02 14:35:20;;;;;;;;;;;;;;;2.60;100.00;97137.50;1649239;86;20489;-88
2022/02/02 14:37:49;;;;;;;;;;;;;;;2.54;100.00;97139.14;1622492;86;24693;-89
2022/02/02 14:40:36;;;;;;;;;;;;;;;2.49;100.00;97146.33;1644303;86;20177;-89
2022/02/02 14:42:55;;;;;;;;;;;;;;;2.45;100.00;97150.85;1641428;86;26209;-88
2022/02/02 14:45:24;;;;;;;;;;;;;;;2.43;100.00;97154.43;1646900;86;24514;-89
2022/02/02 14:47:52;;;;;;;;;;;;;;;2.38;100.00;97161.61;1623441;86;20223;-85
2022/02/02 14:50:28;;;;;;;;;;;;;;;2.38;100.00;97157.73;1638037;86;24758;-89
2022/02/02 14:53:40;;;;;;;;;;;;;;;2.35;100.00;97168.22;1631987;86;22024;-89
2022/02/02 15:07:31;;;;;;;;;;;;;;;2.34;100.00;97188.07;1638682;86;22153;-89
2022/02/02 15:23:55;;;;;;;;;;;;;;;2.45;100.00;97206.82;1634043;86;25617;-89
2022/02/02 15:25:36;;;;;;;;;;;;;;;2.45;100.00;97208.11;1629617;86;24609;-85
2022/02/02 15:27:52;;;;;;;;;;;;;;;2.46;100.00;97217.03;1629693;86;20540;-86
2022/02/02 15:30:23;;;;;;;;;;;;;;;2.49;100.00;97228.50;1641563;85;24838;-89
2022/02/02 15:32:44;;;;;;;;;;;;;;;2.48;100.00;97220.38;1638244;86;22004;-90
2022/02/02 15:35:12;;;;;;;;;;;;;;;2.51;100.00;97230.97;1645257;85;26028;-89
2022/02/02 15:37:54;;;;;;;;;;;;;;;2.49;100.00;97231.08;1632327;86;24523;-89
2022/02/02 15:40:18;;;;;;;;;;;;;;;2.48;100.00;97242.78;1635054;87;20430;-85
2022/02/02 15:42:56;;;;;;;;;;;;;;;2.49;100.00;97252.19;1641392;85;25557;-88
2022/02/02 15:58:55;;;;;;;;;;;;;;;2.37;100.00;97290.31;1641426;86;22196;-88
2022/02/02 16:02:06;;;;;;;;;;;;;;;2.34;100.00;97293.08;1640339;86;26197;-88
2022/02/02 16:04:01;;;;;;;;;;;;;;;2.35;100.00;97299.42;1645845;86;24296;-88
2022/02/02 16:06:30;;;;;;;;;;;;;;;2.36;100.00;97310.13;1647368;86;20305;-89
2022/02/02 16:09:08;;;;;;;;;;;;;;;2.36;100.00;97306.25;1647178;86;24766;-88
2022/02/02 16:11:27;;;;;;;;;;;;;;;2.36;100.00;97317.03;1642758;86;22660;-88
2022/02/02 16:14:00;;;;;;;;;;;;;;;2.37;100.00;97323.87;1647124;86;26221;-88
2022/02/02 16:16:40;;;;;;;;;;;;;;;2.32;100.00;97309.92;1646054;86;24493;-88
2022/02/02 16:36:01;;;;;;;;;;;;;;;2.50;100.00;97348.11;1634027;86;25486;-85
2022/02/02 16:38:30;;;;;;;;;;;;;;;2.51;100.00;97351.04;1647377;86;22133;-85
2022/02/02 16:40:50;;;;;;;;;;;;;;;2.52;100.00;97355.30;1633019;87;26084;-85
2022/02/02 16:43:22;;;;;;;;;;;;;;;2.54;100.00;97367.67;1640714;86;24599;-85
2022/02/02 16:45:50;;;;;;;;;;;;;;;2.53;100.00;97363.42;1641913;86;20368;-85
2022/02/02 16:48:19;;;;;;;;;;;;;;;2.52;100.00;97373.38;1610872;86;24260;-85
2022/02/02 16:50:48;;;;;;;;;;;;;;;2.52;100.00;97367.75;1602511;88;22029;-88
2022/02/02 16:53:26;;;;;;;;;;;;;;;2.50;100.00;97365.73;1556407;89;26244;-85
2022/02/02 16:55:55;;;;;;;;;;;;;;;2.51;100.00;97369.12;1619066;87;25327;-88
2022/02/02 17:24:19;;;;;;;;;;;;;;;2.54;100.00;97367.67;1603747;88;20254;-88
2022/02/02 17:31:22;;;;;;;;;;;;;;;2.66;100.00;97431.58;1612081;86;22125;-88
2022/02/02 17:33:49;;;;;;;;;;;;;;;2.67;100.00;97432.41;1614186;87;26280;-88
2022/02/02 17:36:21;;;;;;;;;;;;;;;2.68;100.00;97442.64;1614601;87;25091;-89
2022/02/02 17:41:31;;;;;;;;;;;;;;;2.70;100.00;97447.28;1615927;87;24780;-85
2022/02/02 17:44:09;;;;;;;;;;;;;;;2.73;100.00;97455.30;1600253;89;22806;-87
2022/02/02 17:58:48;;;;;;;;;;;;;;;2.81;100.00;97471.23;1597626;88;21550;-85
2022/02/02 18:21:16;;;;;;;;;;;;;;;2.52;100.00;97579.50;1589158;89;26260;-89
2022/02/02 18:23:49;;;;;;;;;;;;;;;2.32;100.00;97600.34;1593321;88;22967;-85
2022/02/02 18:29:04;;;;;;;;;;;;;;;2.10;100.00;97616.52;1588607;89;24743;-86
2022/02/02 18:34:27;;;;;;;;;;;;;;;1.94;100.00;97629.33;1591375;88;25050;-89
2022/02/02 18:52:48;;;;;;;;;;;;;;;1.88;100.00;97662.31;1642842;87;26202;-88
2022/02/02 19:03:30;;;;;;;;;;;;;;;2.09;100.00;97683.22;1625763;86;22000;-90
2022/02/02 20:08:46;;;;;;;;;;;;;;;2.39;100.00;97847.45;1634316;86;25744;-85
2022/02/02 20:11:18;;;;;;;;;;;;;;;2.39;100.00;97851.32;1636488;85;22893;-90
2022/02/02 20:13:39;;;;;;;;;;;;;;;2.40;100.00;97852.52;1633302;86;26024;-85
2022/02/02 20:16:10;;;;;;;;;;;;;;;2.44;100.00;97858.40;1639534;86;24449;-88
2022/02/02 20:18:41;;;;;;;;;;;;;;;2.48;100.00;97860.77;1638146;85;20324;-85
2022/02/02 20:21:11;;;;;;;;;;;;;;;2.50;100.00;97858.95;1613137;87;25483;-88
2022/02/02 20:23:46;;;;;;;;;;;;;;;2.49;100.00;97861.60;1583226;89;22163;-89
2022/02/02 20:26:09;;;;;;;;;;;;;;;2.40;100.00;97877.53;1645174;85;26045;-85
2022/02/02 20:28:35;;;;;;;;;;;;;;;2.30;100.00;97884.00;1643194;86;24475;-85
2022/02/02 20:31:08;;;;;;;;;;;;;;;2.26;100.00;97889.77;1645242;86;20347;-88
2022/02/02 20:33:34;;;;;;;;;;;;;;;2.21;100.00;97891.72;1635252;86;24898;-85
2022/02/02 20:36:00;;;;;;;;;;;;;;;2.21;100.00;97896.87;1637592;86;22013;-85
2022/02/02 20:38:27;;;;;;;;;;;;;;;2.20;100.00;97908.11;1638654;86;26056;-85
2022/02/02 20:40:57;;;;;;;;;;;;;;;2.15;100.00;97906.63;1638186;86;25420;-85
2022/02/02 20:44:14;;;;;;;;;;;;;;;;;;;;;
2022/02/02 21:03:13;;;;;;;;;;;;;;;1.59;100.00;97950.73;1653337;86;22065;-89
2022/02/02 21:05:26;;;;;;;;;;;;;;;1.52;100.00;97953.66;1652604;86;26039;-88
2022/02/02 21:10:27;;;;;;;;;;;;;;;1.47;100.00;97970.61;1645255;86;20278;-90
2022/02/02 21:15:37;;;;;;;;;;;;;;;1.42;100.00;97972.98;1632560;86;22288;-89
2022/02/02 21:18:11;;;;;;;;;;;;;;;1.38;100.00;97978.70;1626924;87;26060;-88
2022/02/02 21:20:43;;;;;;;;;;;;;;;1.36;100.00;97981.80;1629470;87;24555;-88
2022/02/02 21:23:10;;;;;;;;;;;;;;;1.36;100.00;97978.39;1631414;86;20259;-89
2022/02/02 21:25:36;;;;;;;;;;;;;;;1.36;100.00;97988.70;1633009;86;24774;-88
2022/02/02 21:28:01;;;;;;;;;;;;;;;1.34;100.00;97987.46;1624908;87;22194;-85
2022/02/02 21:30:30;;;;;;;;;;;;;;;1.33;100.00;97997.83;1634349;87;27044;-88
2022/02/02 21:32:56;;;;;;;;;;;;;;;1.32;100.00;98003.87;1633517;86;25227;-88
2022/02/02 21:35:23;;;;;;;;;;;;;;;1.30;100.00;98006.98;1644855;86;20460;-85
2022/02/02 21:37:51;;;;;;;;;;;;;;;1.30;100.00;98011.69;1619336;86;24822;-85
2022/02/02 21:40:25;;;;;;;;;;;;;;;1.29;100.00;98015.16;1635736;86;22595;-85
2022/02/02 21:42:51;;;;;;;;;;;;;;;1.27;100.00;98010.50;1636845;86;26113;-85
2022/02/02 21:45:19;;;;;;;;;;;;;;;1.26;100.00;98014.81;1640189;86;24502;-88
2022/02/02 21:47:45;;;;;;;;;;;;;;;1.28;100.00;98010.06;1639779;86;20215;-89
2022/02/02 21:50:16;;;;;;;;;;;;;;;1.27;100.00;98013.08;1608676;86;25571;-88
2022/02/02 21:52:40;;;;;;;;;;;;;;;1.27;100.00;98015.66;1611273;88;23063;-88
2022/02/02 21:55:06;;;;;;;;;;;;;;;1.23;100.00;98022.69;1612736;87;26137;-89
2022/02/02 21:57:33;;;;;;;;;;;;;;;1.20;100.00;98024.55;1608691;88;25254;-88
2022/02/02 22:00:00;;;;;;;;;;;;;;;1.20;100.00;98036.96;1610584;86;20333;-86
2022/02/02 22:02:28;;;;;;;;;;;;;;;1.18;100.00;98041.80;1613887;87;24388;-85
2022/02/02 22:04:54;;;;;;;;;;;;;;;1.17;100.00;98049.14;1615313;87;22103;-85
2022/02/02 22:07:20;;;;;;;;;;;;;;;1.13;100.00;98054.02;1613945;87;26003;-85
2022/02/02 22:09:49;;;;;;;;;;;;;;;1.11;100.00;98052.78;1613134;87;24880;-85
2022/02/02 22:12:14;;;;;;;;;;;;;;;1.09;100.00;98058.44;1611842;87;20583;-88
2022/02/02 22:14:46;;;;;;;;;;;;;;;1.08;100.00;98067.09;1607619;87;24742;-88
2022/02/02 22:17:12;;;;;;;;;;;;;;;1.05;100.00;98072.78;1589891;88;20198;-85
2022/02/02 22:19:38;;;;;;;;;;;;;;;1.03;100.00;98085.75;1610886;87;25862;-89
2022/02/02 22:22:04;;;;;;;;;;;;;;;1.02;100.00;98093.08;1610505;87;24524;-89
2022/02/02 22:24:35;;;;;;;;;;;;;;;0.99;100.00;98103.92;1616071;88;20320;-89
2022/02/02 22:26:58;;;;;;;;;;;;;;;0.98;100.00;98108.71;1611430;88;24864;-88
2022/02/02 22:29:24;;;;;;;;;;;;;;;0.98;100.00;98112.58;1614506;88;22295;-88
2022/02/02 22:31:52;;;;;;;;;;;;;;;0.98;100.00;98119.86;1614814;88;21136;-87
2022/02/02 22:34:24;;;;;;;;;;;;;;;0.99;100.00;98125.83;1611916;88;24555;-87
2022/02/02 22:36:53;;;;;;;;;;;;;;;1.00;100.00;98132.66;1614211;88;20359;-88